sensor_id;sensor_type;location;lat;lon;timestamp;P1;durP1;ratioP1;P2;durP2;ratioP2
40827;SDS011;26549;50.918;5.338;2022-10-16T00:01:58;1.55;;;0.82;;
40827;SDS011;26549;50.918;5.338;2022-10-16T00:04:24;1.08;;;0.98;;
40827;SDS011;26549;50.918;5.338;2022-10-16T00:06:50;1.10;;;0.60;;
40827;SDS011;26549;50.918;5.338;2022-10-16T00:09:15;3.88;;;1.10;;
40827;SDS011;26549;50.918;5.338;2022-10-16T00:11:41;5.18;;;0.80;;
40827;SDS011;26549;50.918;5.338;2022-10-16T00:14:08;0.60;;;0.60;;
40827;SDS011;26549;50.918;5.338;2022-10-16T00:16:36;2.70;;;1.27;;
40827;SDS011;26549;50.918;5.338;2022-10-16T00:19:02;1.45;;;0.85;;
40827;SDS011;26549;50.918;5.338;2022-10-16T00:21:29;4.25;;;1.15;;
40827;SDS011;26549;50.918;5.338;2022-10-16T00:23:57;2.58;;;1.00;;
40827;SDS011;26549;50.918;5.338;2022-10-16T00:26:24;0.93;;;0.52;;
40827;SDS011;26549;50.918;5.338;2022-10-16T00:28:52;1.48;;;0.55;;
40827;SDS011;26549;50.918;5.338;2022-10-16T00:31:19;2.28;;;1.27;;
40827;SDS011;26549;50.918;5.338;2022-10-16T00:33:47;2.35;;;0.60;;
40827;SDS011;26549;50.918;5.338;2022-10-16T00:36:14;0.73;;;0.40;;
40827;SDS011;26549;50.918;5.338;2022-10-16T00:38:43;1.65;;;0.30;;
40827;SDS011;26549;50.918;5.338;2022-10-16T00:41:13;2.08;;;0.52;;
40827;SDS011;26549;50.918;5.338;2022-10-16T00:43:51;1.88;;;0.38;;
40827;SDS011;26549;50.918;5.338;2022-10-16T00:46:20;0.63;;;0.40;;
40827;SDS011;26549;50.918;5.338;2022-10-16T00:51:50;2.15;;;0.50;;
40827;SDS011;26549;50.918;5.338;2022-10-16T00:54:18;1.00;;;0.60;;
40827;SDS011;26549;50.918;5.338;2022-10-16T00:56:49;1.13;;;0.60;;
40827;SDS011;26549;50.918;5.338;2022-10-16T00:59:19;1.80;;;0.75;;
40827;SDS011;26549;50.918;5.338;2022-10-16T01:01:49;0.80;;;0.52;;
40827;SDS011;26549;50.918;5.338;2022-10-16T01:04:16;0.40;;;0.40;;
40827;SDS011;26549;50.918;5.338;2022-10-16T01:15:27;1.02;;;0.40;;
40827;SDS011;26549;50.918;5.338;2022-10-16T01:20:31;0.57;;;0.47;;
40827;SDS011;26549;50.918;5.338;2022-10-16T01:28:15;1.27;;;0.50;;
40827;SDS011;26549;50.918;5.338;2022-10-16T01:30:44;0.55;;;0.50;;
40827;SDS011;26549;50.918;5.338;2022-10-16T01:33:16;1.55;;;0.85;;
40827;SDS011;26549;50.918;5.338;2022-10-16T01:35:52;4.65;;;0.43;;
40827;SDS011;26549;50.918;5.338;2022-10-16T01:38:25;1.30;;;0.50;;
40827;SDS011;26549;50.918;5.338;2022-10-16T01:40:59;0.80;;;0.32;;
40827;SDS011;26549;50.918;5.338;2022-10-16T01:43:33;1.65;;;1.13;;
40827;SDS011;26549;50.918;5.338;2022-10-16T01:46:02;1.80;;;0.50;;
40827;SDS011;26549;50.918;5.338;2022-10-16T01:48:29;1.92;;;0.80;;
40827;SDS011;26549;50.918;5.338;2022-10-16T01:51:01;2.55;;;0.47;;
40827;SDS011;26549;50.918;5.338;2022-10-16T01:53:37;0.65;;;0.40;;
40827;SDS011;26549;50.918;5.338;2022-10-16T01:56:05;3.42;;;0.50;;
40827;SDS011;26549;50.918;5.338;2022-10-16T01:58:35;1.65;;;0.50;;
40827;SDS011;26549;50.918;5.338;2022-10-16T02:01:06;0.93;;;0.45;;
40827;SDS011;26549;50.918;5.338;2022-10-16T02:03:34;12.32;;;1.10;;
40827;SDS011;26549;50.918;5.338;2022-10-16T02:06:02;6.70;;;1.05;;
40827;SDS011;26549;50.918;5.338;2022-10-16T02:08:28;1.10;;;0.40;;
40827;SDS011;26549;50.918;5.338;2022-10-16T02:10:56;0.35;;;0.32;;
40827;SDS011;26549;50.918;5.338;2022-10-16T02:15:52;0.70;;;0.60;;
40827;SDS011;26549;50.918;5.338;2022-10-16T02:18:18;2.90;;;0.75;;
40827;SDS011;26549;50.918;5.338;2022-10-16T02:20:51;0.57;;;0.50;;
40827;SDS011;26549;50.918;5.338;2022-10-16T02:23:34;0.50;;;0.50;;
40827;SDS011;26549;50.918;5.338;2022-10-16T02:26:09;2.33;;;0.40;;
40827;SDS011;26549;50.918;5.338;2022-10-16T02:28:51;0.77;;;0.52;;
40827;SDS011;26549;50.918;5.338;2022-10-16T02:31:22;1.65;;;0.57;;
40827;SDS011;26549;50.918;5.338;2022-10-16T02:33:53;0.52;;;0.52;;
40827;SDS011;26549;50.918;5.338;2022-10-16T02:36:21;2.05;;;0.60;;
40827;SDS011;26549;50.918;5.338;2022-10-16T02:38:47;2.88;;;0.60;;
40827;SDS011;26549;50.918;5.338;2022-10-16T02:41:13;1.00;;;0.35;;
40827;SDS011;26549;50.918;5.338;2022-10-16T02:43:39;1.83;;;0.70;;
40827;SDS011;26549;50.918;5.338;2022-10-16T02:46:05;0.85;;;0.47;;
40827;SDS011;26549;50.918;5.338;2022-10-16T02:48:31;1.65;;;0.52;;
40827;SDS011;26549;50.918;5.338;2022-10-16T02:50:56;2.50;;;0.60;;
40827;SDS011;26549;50.918;5.338;2022-10-16T02:53:22;1.25;;;0.52;;
40827;SDS011;26549;50.918;5.338;2022-10-16T02:55:48;1.70;;;0.50;;
40827;SDS011;26549;50.918;5.338;2022-10-16T02:58:14;0.52;;;0.50;;
40827;SDS011;26549;50.918;5.338;2022-10-16T03:00:39;1.45;;;0.88;;
40827;SDS011;26549;50.918;5.338;2022-10-16T03:03:05;2.05;;;0.50;;
40827;SDS011;26549;50.918;5.338;2022-10-16T03:05:31;0.45;;;0.45;;
40827;SDS011;26549;50.918;5.338;2022-10-16T03:07:56;1.52;;;0.60;;
40827;SDS011;26549;50.918;5.338;2022-10-16T03:10:25;1.10;;;0.60;;
40827;SDS011;26549;50.918;5.338;2022-10-16T03:12:50;1.20;;;0.55;;
40827;SDS011;26549;50.918;5.338;2022-10-16T03:15:16;0.68;;;0.60;;
40827;SDS011;26549;50.918;5.338;2022-10-16T03:17:42;1.10;;;0.40;;
40827;SDS011;26549;50.918;5.338;2022-10-16T03:20:08;3.08;;;0.60;;
40827;SDS011;26549;50.918;5.338;2022-10-16T03:22:34;1.80;;;0.70;;
40827;SDS011;26549;50.918;5.338;2022-10-16T03:25:00;1.67;;;0.60;;
40827;SDS011;26549;50.918;5.338;2022-10-16T03:27:26;1.23;;;0.40;;
40827;SDS011;26549;50.918;5.338;2022-10-16T03:29:51;4.53;;;0.77;;
40827;SDS011;26549;50.918;5.338;2022-10-16T03:32:17;1.58;;;0.60;;
40827;SDS011;26549;50.918;5.338;2022-10-16T03:34:45;3.70;;;1.02;;
40827;SDS011;26549;50.918;5.338;2022-10-16T03:37:10;1.67;;;0.90;;
40827;SDS011;26549;50.918;5.338;2022-10-16T03:39:36;2.25;;;0.77;;
40827;SDS011;26549;50.918;5.338;2022-10-16T03:42:03;2.67;;;1.05;;
40827;SDS011;26549;50.918;5.338;2022-10-16T03:44:29;1.85;;;0.40;;
40827;SDS011;26549;50.918;5.338;2022-10-16T03:46:55;3.88;;;0.90;;
40827;SDS011;26549;50.918;5.338;2022-10-16T03:49:21;2.20;;;0.73;;
40827;SDS011;26549;50.918;5.338;2022-10-16T03:51:46;0.98;;;0.80;;
40827;SDS011;26549;50.918;5.338;2022-10-16T03:54:12;2.03;;;0.40;;
40827;SDS011;26549;50.918;5.338;2022-10-16T03:56:38;1.48;;;0.52;;
40827;SDS011;26549;50.918;5.338;2022-10-16T03:59:04;0.70;;;0.70;;
40827;SDS011;26549;50.918;5.338;2022-10-16T04:01:30;1.02;;;0.70;;
40827;SDS011;26549;50.918;5.338;2022-10-16T04:03:55;2.65;;;0.63;;
40827;SDS011;26549;50.918;5.338;2022-10-16T04:06:21;5.63;;;0.93;;
40827;SDS011;26549;50.918;5.338;2022-10-16T04:08:47;1.70;;;1.00;;
40827;SDS011;26549;50.918;5.338;2022-10-16T04:11:14;2.15;;;0.80;;
40827;SDS011;26549;50.918;5.338;2022-10-16T04:13:40;0.80;;;0.75;;
40827;SDS011;26549;50.918;5.338;2022-10-16T04:16:06;2.05;;;0.70;;
40827;SDS011;26549;50.918;5.338;2022-10-16T04:18:32;0.95;;;0.80;;
40827;SDS011;26549;50.918;5.338;2022-10-16T04:21:07;1.85;;;1.25;;
40827;SDS011;26549;50.918;5.338;2022-10-16T04:23:33;1.70;;;0.60;;
40827;SDS011;26549;50.918;5.338;2022-10-16T04:25:59;4.57;;;1.08;;
40827;SDS011;26549;50.918;5.338;2022-10-16T04:28:25;3.10;;;1.02;;
40827;SDS011;26549;50.918;5.338;2022-10-16T04:30:51;4.43;;;0.80;;
40827;SDS011;26549;50.918;5.338;2022-10-16T04:33:17;2.53;;;0.90;;
40827;SDS011;26549;50.918;5.338;2022-10-16T04:35:43;0.60;;;0.60;;
40827;SDS011;26549;50.918;5.338;2022-10-16T04:38:08;4.40;;;1.23;;
40827;SDS011;26549;50.918;5.338;2022-10-16T04:40:34;4.07;;;1.10;;
40827;SDS011;26549;50.918;5.338;2022-10-16T04:43:03;3.10;;;1.00;;
40827;SDS011;26549;50.918;5.338;2022-10-16T04:45:29;1.48;;;0.70;;
40827;SDS011;26549;50.918;5.338;2022-10-16T04:47:59;1.65;;;1.25;;
40827;SDS011;26549;50.918;5.338;2022-10-16T04:50:25;1.00;;;0.90;;
40827;SDS011;26549;50.918;5.338;2022-10-16T04:52:51;1.20;;;0.80;;
40827;SDS011;26549;50.918;5.338;2022-10-16T04:55:16;2.00;;;0.95;;
40827;SDS011;26549;50.918;5.338;2022-10-16T04:57:42;3.60;;;1.10;;
40827;SDS011;26549;50.918;5.338;2022-10-16T05:00:08;1.95;;;0.80;;
40827;SDS011;26549;50.918;5.338;2022-10-16T05:02:34;2.70;;;1.20;;
40827;SDS011;26549;50.918;5.338;2022-10-16T05:05:00;1.52;;;1.10;;
40827;SDS011;26549;50.918;5.338;2022-10-16T05:07:26;1.80;;;0.90;;
40827;SDS011;26549;50.918;5.338;2022-10-16T05:09:52;2.95;;;1.00;;
40827;SDS011;26549;50.918;5.338;2022-10-16T05:12:18;3.88;;;1.10;;
40827;SDS011;26549;50.918;5.338;2022-10-16T05:14:44;3.35;;;1.00;;
40827;SDS011;26549;50.918;5.338;2022-10-16T05:17:10;0.98;;;0.98;;
40827;SDS011;26549;50.918;5.338;2022-10-16T05:19:36;1.67;;;1.20;;
40827;SDS011;26549;50.918;5.338;2022-10-16T05:22:02;5.03;;;1.17;;
40827;SDS011;26549;50.918;5.338;2022-10-16T05:24:27;4.18;;;1.30;;
40827;SDS011;26549;50.918;5.338;2022-10-16T05:26:53;5.43;;;1.80;;
40827;SDS011;26549;50.918;5.338;2022-10-16T05:29:19;1.48;;;1.38;;
40827;SDS011;26549;50.918;5.338;2022-10-16T05:31:45;3.17;;;1.30;;
40827;SDS011;26549;50.918;5.338;2022-10-16T05:34:11;3.92;;;1.27;;
40827;SDS011;26549;50.918;5.338;2022-10-16T05:36:36;2.80;;;0.90;;
40827;SDS011;26549;50.918;5.338;2022-10-16T05:39:02;2.33;;;1.00;;
40827;SDS011;26549;50.918;5.338;2022-10-16T05:41:28;4.68;;;1.83;;
40827;SDS011;26549;50.918;5.338;2022-10-16T05:43:54;4.07;;;1.20;;
40827;SDS011;26549;50.918;5.338;2022-10-16T05:46:20;2.75;;;1.02;;
40827;SDS011;26549;50.918;5.338;2022-10-16T05:48:46;4.22;;;1.27;;
40827;SDS011;26549;50.918;5.338;2022-10-16T05:51:12;2.50;;;1.20;;
40827;SDS011;26549;50.918;5.338;2022-10-16T05:53:39;5.88;;;1.17;;
40827;SDS011;26549;50.918;5.338;2022-10-16T05:56:06;5.18;;;1.25;;
40827;SDS011;26549;50.918;5.338;2022-10-16T05:58:33;2.45;;;1.20;;
40827;SDS011;26549;50.918;5.338;2022-10-16T06:01:03;1.48;;;1.15;;
40827;SDS011;26549;50.918;5.338;2022-10-16T06:03:30;1.38;;;1.02;;
40827;SDS011;26549;50.918;5.338;2022-10-16T06:05:56;3.70;;;1.20;;
40827;SDS011;26549;50.918;5.338;2022-10-16T06:08:22;2.05;;;1.23;;
40827;SDS011;26549;50.918;5.338;2022-10-16T06:10:48;3.38;;;1.58;;
40827;SDS011;26549;50.918;5.338;2022-10-16T06:13:15;1.92;;;1.20;;
40827;SDS011;26549;50.918;5.338;2022-10-16T06:15:42;1.52;;;1.30;;
40827;SDS011;26549;50.918;5.338;2022-10-16T06:18:09;4.47;;;1.88;;
40827;SDS011;26549;50.918;5.338;2022-10-16T06:20:35;2.97;;;1.27;;
40827;SDS011;26549;50.918;5.338;2022-10-16T06:23:02;2.30;;;1.30;;
40827;SDS011;26549;50.918;5.338;2022-10-16T06:25:29;4.50;;;1.40;;
40827;SDS011;26549;50.918;5.338;2022-10-16T06:27:56;2.80;;;1.05;;
40827;SDS011;26549;50.918;5.338;2022-10-16T06:30:22;1.95;;;0.90;;
40827;SDS011;26549;50.918;5.338;2022-10-16T06:32:48;2.33;;;1.42;;
40827;SDS011;26549;50.918;5.338;2022-10-16T06:35:15;2.13;;;1.05;;
40827;SDS011;26549;50.918;5.338;2022-10-16T06:37:41;2.60;;;1.42;;
40827;SDS011;26549;50.918;5.338;2022-10-16T06:40:06;1.75;;;1.20;;
40827;SDS011;26549;50.918;5.338;2022-10-16T06:42:32;1.40;;;1.23;;
40827;SDS011;26549;50.918;5.338;2022-10-16T06:44:59;4.55;;;1.10;;
40827;SDS011;26549;50.918;5.338;2022-10-16T06:47:25;8.02;;;1.60;;
40827;SDS011;26549;50.918;5.338;2022-10-16T06:49:51;3.78;;;1.52;;
40827;SDS011;26549;50.918;5.338;2022-10-16T06:52:17;1.38;;;0.90;;
40827;SDS011;26549;50.918;5.338;2022-10-16T06:54:43;4.10;;;2.33;;
40827;SDS011;26549;50.918;5.338;2022-10-16T06:57:08;2.92;;;1.52;;
40827;SDS011;26549;50.918;5.338;2022-10-16T06:59:34;3.90;;;1.52;;
40827;SDS011;26549;50.918;5.338;2022-10-16T07:02:00;4.47;;;1.75;;
40827;SDS011;26549;50.918;5.338;2022-10-16T07:04:26;5.07;;;1.58;;
40827;SDS011;26549;50.918;5.338;2022-10-16T07:06:51;4.63;;;1.77;;
40827;SDS011;26549;50.918;5.338;2022-10-16T07:09:17;3.00;;;1.73;;
40827;SDS011;26549;50.918;5.338;2022-10-16T07:11:43;4.28;;;1.48;;
40827;SDS011;26549;50.918;5.338;2022-10-16T07:14:16;3.10;;;1.27;;
40827;SDS011;26549;50.918;5.338;2022-10-16T07:16:43;5.50;;;1.17;;
40827;SDS011;26549;50.918;5.338;2022-10-16T07:19:09;4.95;;;1.30;;
40827;SDS011;26549;50.918;5.338;2022-10-16T07:21:36;2.60;;;1.55;;
40827;SDS011;26549;50.918;5.338;2022-10-16T07:24:04;5.22;;;1.88;;
40827;SDS011;26549;50.918;5.338;2022-10-16T07:26:32;3.45;;;1.70;;
40827;SDS011;26549;50.918;5.338;2022-10-16T07:29:00;1.40;;;1.30;;
40827;SDS011;26549;50.918;5.338;2022-10-16T07:31:26;3.58;;;1.40;;
40827;SDS011;26549;50.918;5.338;2022-10-16T07:33:52;2.95;;;1.52;;
40827;SDS011;26549;50.918;5.338;2022-10-16T07:36:19;3.17;;;1.45;;
40827;SDS011;26549;50.918;5.338;2022-10-16T07:38:45;2.63;;;1.05;;
40827;SDS011;26549;50.918;5.338;2022-10-16T07:41:13;2.80;;;1.15;;
40827;SDS011;26549;50.918;5.338;2022-10-16T07:43:40;4.10;;;1.02;;
40827;SDS011;26549;50.918;5.338;2022-10-16T07:46:05;9.05;;;1.58;;
40827;SDS011;26549;50.918;5.338;2022-10-16T07:48:32;4.65;;;0.95;;
40827;SDS011;26549;50.918;5.338;2022-10-16T07:51:00;3.45;;;1.20;;
40827;SDS011;26549;50.918;5.338;2022-10-16T07:53:28;1.52;;;0.77;;
40827;SDS011;26549;50.918;5.338;2022-10-16T07:56:00;1.48;;;1.05;;
40827;SDS011;26549;50.918;5.338;2022-10-16T07:58:28;1.05;;;0.90;;
40827;SDS011;26549;50.918;5.338;2022-10-16T08:00:54;2.95;;;1.15;;
40827;SDS011;26549;50.918;5.338;2022-10-16T08:03:20;1.38;;;1.00;;
40827;SDS011;26549;50.918;5.338;2022-10-16T08:05:46;1.38;;;1.27;;
40827;SDS011;26549;50.918;5.338;2022-10-16T08:08:12;5.13;;;1.23;;
40827;SDS011;26549;50.918;5.338;2022-10-16T08:10:40;4.10;;;0.80;;
40827;SDS011;26549;50.918;5.338;2022-10-16T08:13:05;1.67;;;0.90;;
40827;SDS011;26549;50.918;5.338;2022-10-16T08:15:32;1.77;;;0.93;;
40827;SDS011;26549;50.918;5.338;2022-10-16T08:17:59;2.88;;;1.60;;
40827;SDS011;26549;50.918;5.338;2022-10-16T08:20:27;1.48;;;1.00;;
40827;SDS011;26549;50.918;5.338;2022-10-16T08:22:54;4.53;;;0.95;;
40827;SDS011;26549;50.918;5.338;2022-10-16T08:25:21;4.70;;;1.10;;
40827;SDS011;26549;50.918;5.338;2022-10-16T08:27:48;2.35;;;1.13;;
40827;SDS011;26549;50.918;5.338;2022-10-16T08:30:15;1.85;;;0.68;;
40827;SDS011;26549;50.918;5.338;2022-10-16T08:32:41;2.80;;;1.00;;
40827;SDS011;26549;50.918;5.338;2022-10-16T08:35:10;2.08;;;1.40;;
40827;SDS011;26549;50.918;5.338;2022-10-16T08:37:37;0.98;;;0.50;;
40827;SDS011;26549;50.918;5.338;2022-10-16T08:40:04;2.10;;;1.02;;
40827;SDS011;26549;50.918;5.338;2022-10-16T08:42:52;0.80;;;0.73;;
40827;SDS011;26549;50.918;5.338;2022-10-16T08:50:45;1.38;;;1.20;;
40827;SDS011;26549;50.918;5.338;2022-10-16T08:53:14;2.10;;;0.93;;
40827;SDS011;26549;50.918;5.338;2022-10-16T08:55:51;2.97;;;1.00;;
40827;SDS011;26549;50.918;5.338;2022-10-16T08:58:18;4.03;;;0.82;;
40827;SDS011;26549;50.918;5.338;2022-10-16T09:00:47;2.90;;;0.88;;
40827;SDS011;26549;50.918;5.338;2022-10-16T09:03:42;6.03;;;0.77;;
40827;SDS011;26549;50.918;5.338;2022-10-16T09:09:34;3.28;;;0.85;;
40827;SDS011;26549;50.918;5.338;2022-10-16T09:12:04;1.63;;;1.52;;
40827;SDS011;26549;50.918;5.338;2022-10-16T09:15:10;4.05;;;0.98;;
40827;SDS011;26549;50.918;5.338;2022-10-16T09:20:43;1.85;;;0.60;;
40827;SDS011;26549;50.918;5.338;2022-10-16T09:25:41;2.88;;;0.47;;
40827;SDS011;26549;50.918;5.338;2022-10-16T09:28:09;4.30;;;0.85;;
40827;SDS011;26549;50.918;5.338;2022-10-16T09:30:36;2.28;;;0.98;;
40827;SDS011;26549;50.918;5.338;2022-10-16T09:33:04;1.73;;;0.50;;
40827;SDS011;26549;50.918;5.338;2022-10-16T09:35:33;2.05;;;0.90;;
40827;SDS011;26549;50.918;5.338;2022-10-16T09:38:02;2.63;;;1.00;;
40827;SDS011;26549;50.918;5.338;2022-10-16T09:40:30;2.40;;;0.80;;
40827;SDS011;26549;50.918;5.338;2022-10-16T09:43:59;7.20;;;0.90;;
40827;SDS011;26549;50.918;5.338;2022-10-16T09:46:07;2.67;;;0.80;;
40827;SDS011;26549;50.918;5.338;2022-10-16T09:48:54;2.40;;;0.70;;
40827;SDS011;26549;50.918;5.338;2022-10-16T09:51:32;1.35;;;0.75;;
40827;SDS011;26549;50.918;5.338;2022-10-16T09:56:35;1.13;;;0.90;;
40827;SDS011;26549;50.918;5.338;2022-10-16T09:59:14;6.43;;;0.75;;
40827;SDS011;26549;50.918;5.338;2022-10-16T10:01:43;2.80;;;0.95;;
40827;SDS011;26549;50.918;5.338;2022-10-16T10:04:16;3.97;;;1.55;;
40827;SDS011;26549;50.918;5.338;2022-10-16T10:09:16;4.47;;;1.15;;
40827;SDS011;26549;50.918;5.338;2022-10-16T10:11:47;1.33;;;0.55;;
40827;SDS011;26549;50.918;5.338;2022-10-16T10:14:26;1.20;;;0.60;;
40827;SDS011;26549;50.918;5.338;2022-10-16T10:22:40;2.85;;;0.70;;
40827;SDS011;26549;50.918;5.338;2022-10-16T10:30:20;3.47;;;0.63;;
40827;SDS011;26549;50.918;5.338;2022-10-16T10:38:47;1.05;;;0.95;;
40827;SDS011;26549;50.918;5.338;2022-10-16T10:43:53;3.65;;;0.82;;
40827;SDS011;26549;50.918;5.338;2022-10-16T10:46:28;3.22;;;0.80;;
40827;SDS011;26549;50.918;5.338;2022-10-16T10:49:07;2.05;;;0.50;;
40827;SDS011;26549;50.918;5.338;2022-10-16T11:00:14;2.15;;;0.73;;
40827;SDS011;26549;50.918;5.338;2022-10-16T11:06:12;4.32;;;0.65;;
40827;SDS011;26549;50.918;5.338;2022-10-16T11:08:41;2.03;;;0.70;;
40827;SDS011;26549;50.918;5.338;2022-10-16T11:11:16;3.60;;;1.17;;
40827;SDS011;26549;50.918;5.338;2022-10-16T11:16:27;4.55;;;1.80;;
40827;SDS011;26549;50.918;5.338;2022-10-16T11:21:46;4.53;;;0.52;;
40827;SDS011;26549;50.918;5.338;2022-10-16T11:24:22;3.90;;;1.20;;
40827;SDS011;26549;50.918;5.338;2022-10-16T11:26:59;4.63;;;0.68;;
40827;SDS011;26549;50.918;5.338;2022-10-16T11:29:32;2.83;;;0.68;;
40827;SDS011;26549;50.918;5.338;2022-10-16T11:32:10;3.83;;;1.13;;
40827;SDS011;26549;50.918;5.338;2022-10-16T11:34:57;1.83;;;0.57;;
40827;SDS011;26549;50.918;5.338;2022-10-16T11:37:34;2.42;;;0.70;;
40827;SDS011;26549;50.918;5.338;2022-10-16T11:40:14;3.42;;;1.13;;
40827;SDS011;26549;50.918;5.338;2022-10-16T11:42:43;4.38;;;1.08;;
40827;SDS011;26549;50.918;5.338;2022-10-16T11:45:25;1.52;;;0.70;;
40827;SDS011;26549;50.918;5.338;2022-10-16T11:54:21;3.47;;;0.60;;
40827;SDS011;26549;50.918;5.338;2022-10-16T12:02:50;0.57;;;0.45;;
40827;SDS011;26549;50.918;5.338;2022-10-16T12:08:15;1.95;;;0.82;;
40827;SDS011;26549;50.918;5.338;2022-10-16T12:10:42;1.02;;;0.45;;
40827;SDS011;26549;50.918;5.338;2022-10-16T12:18:44;1.10;;;0.90;;
40827;SDS011;26549;50.918;5.338;2022-10-16T12:21:12;1.98;;;0.65;;
40827;SDS011;26549;50.918;5.338;2022-10-16T12:23:56;1.55;;;1.00;;
40827;SDS011;26549;50.918;5.338;2022-10-16T12:26:29;3.25;;;0.55;;
40827;SDS011;26549;50.918;5.338;2022-10-16T12:29:08;0.93;;;0.85;;
40827;SDS011;26549;50.918;5.338;2022-10-16T12:31:47;1.33;;;0.40;;
40827;SDS011;26549;50.918;5.338;2022-10-16T12:34:48;0.93;;;0.70;;
40827;SDS011;26549;50.918;5.338;2022-10-16T12:37:27;3.88;;;1.15;;
40827;SDS011;26549;50.918;5.338;2022-10-16T12:39:56;0.80;;;0.35;;
40827;SDS011;26549;50.918;5.338;2022-10-16T12:44:54;1.42;;;0.60;;
40827;SDS011;26549;50.918;5.338;2022-10-16T12:49:55;1.70;;;0.50;;
40827;SDS011;26549;50.918;5.338;2022-10-16T12:54:59;2.22;;;0.52;;
40827;SDS011;26549;50.918;5.338;2022-10-16T12:57:44;2.00;;;0.30;;
40827;SDS011;26549;50.918;5.338;2022-10-16T13:00:26;1.73;;;0.40;;
40827;SDS011;26549;50.918;5.338;2022-10-16T13:09:02;1.35;;;0.88;;
40827;SDS011;26549;50.918;5.338;2022-10-16T13:12:00;3.90;;;1.42;;
40827;SDS011;26549;50.918;5.338;2022-10-16T13:15:01;1.70;;;0.70;;
40827;SDS011;26549;50.918;5.338;2022-10-16T13:23:23;1.83;;;0.43;;
40827;SDS011;26549;50.918;5.338;2022-10-16T13:26:14;0.73;;;0.40;;
40827;SDS011;26549;50.918;5.338;2022-10-16T13:28:45;4.28;;;0.60;;
40827;SDS011;26549;50.918;5.338;2022-10-16T13:31:18;1.10;;;0.50;;
40827;SDS011;26549;50.918;5.338;2022-10-16T13:33:49;1.30;;;0.40;;
40827;SDS011;26549;50.918;5.338;2022-10-16T13:36:24;1.77;;;0.50;;
40827;SDS011;26549;50.918;5.338;2022-10-16T13:38:59;2.53;;;0.32;;
40827;SDS011;26549;50.918;5.338;2022-10-16T13:41:37;0.65;;;0.47;;
40827;SDS011;26549;50.918;5.338;2022-10-16T13:44:03;2.40;;;0.35;;
40827;SDS011;26549;50.918;5.338;2022-10-16T13:46:30;1.70;;;0.45;;
40827;SDS011;26549;50.918;5.338;2022-10-16T13:49:00;2.47;;;0.40;;
40827;SDS011;26549;50.918;5.338;2022-10-16T13:51:31;0.35;;;0.28;;
40827;SDS011;26549;50.918;5.338;2022-10-16T13:53:58;1.00;;;0.25;;
40827;SDS011;26549;50.918;5.338;2022-10-16T13:56:28;0.28;;;0.28;;
40827;SDS011;26549;50.918;5.338;2022-10-16T14:01:33;1.98;;;0.35;;
40827;SDS011;26549;50.918;5.338;2022-10-16T14:04:09;0.98;;;0.38;;
40827;SDS011;26549;50.918;5.338;2022-10-16T14:06:40;0.88;;;0.30;;
40827;SDS011;26549;50.918;5.338;2022-10-16T14:09:11;5.68;;;0.65;;
40827;SDS011;26549;50.918;5.338;2022-10-16T14:12:02;1.48;;;0.40;;
40827;SDS011;26549;50.918;5.338;2022-10-16T14:14:40;0.50;;;0.38;;
40827;SDS011;26549;50.918;5.338;2022-10-16T14:19:55;1.55;;;0.95;;
40827;SDS011;26549;50.918;5.338;2022-10-16T14:22:30;1.40;;;0.57;;
40827;SDS011;26549;50.918;5.338;2022-10-16T14:27:59;1.73;;;0.32;;
40827;SDS011;26549;50.918;5.338;2022-10-16T14:35:33;4.63;;;1.05;;
40827;SDS011;26549;50.918;5.338;2022-10-16T14:38:01;1.92;;;0.70;;
40827;SDS011;26549;50.918;5.338;2022-10-16T14:40:30;1.35;;;0.40;;
40827;SDS011;26549;50.918;5.338;2022-10-16T14:42:57;1.10;;;0.70;;
40827;SDS011;26549;50.918;5.338;2022-10-16T14:45:29;3.30;;;0.57;;
40827;SDS011;26549;50.918;5.338;2022-10-16T14:47:58;1.52;;;0.80;;
40827;SDS011;26549;50.918;5.338;2022-10-16T14:50:26;1.73;;;0.40;;
40827;SDS011;26549;50.918;5.338;2022-10-16T14:52:52;1.80;;;0.60;;
40827;SDS011;26549;50.918;5.338;2022-10-16T14:55:21;3.38;;;0.70;;
40827;SDS011;26549;50.918;5.338;2022-10-16T14:57:46;0.80;;;0.40;;
40827;SDS011;26549;50.918;5.338;2022-10-16T15:00:17;2.05;;;0.50;;
40827;SDS011;26549;50.918;5.338;2022-10-16T15:02:46;2.38;;;0.38;;
40827;SDS011;26549;50.918;5.338;2022-10-16T15:07:45;2.58;;;0.47;;
40827;SDS011;26549;50.918;5.338;2022-10-16T15:10:14;2.33;;;0.80;;
40827;SDS011;26549;50.918;5.338;2022-10-16T15:12:41;0.50;;;0.45;;
40827;SDS011;26549;50.918;5.338;2022-10-16T15:17:55;0.80;;;0.40;;
40827;SDS011;26549;50.918;5.338;2022-10-16T15:20:22;1.85;;;0.50;;
40827;SDS011;26549;50.918;5.338;2022-10-16T15:22:51;1.52;;;0.60;;
40827;SDS011;26549;50.918;5.338;2022-10-16T15:28:06;2.55;;;0.47;;
40827;SDS011;26549;50.918;5.338;2022-10-16T15:30:33;1.50;;;0.70;;
40827;SDS011;26549;50.918;5.338;2022-10-16T15:32:59;1.35;;;0.70;;
40827;SDS011;26549;50.918;5.338;2022-10-16T15:35:25;3.95;;;0.80;;
40827;SDS011;26549;50.918;5.338;2022-10-16T15:37:51;4.10;;;0.60;;
40827;SDS011;26549;50.918;5.338;2022-10-16T15:40:17;3.75;;;0.88;;
40827;SDS011;26549;50.918;5.338;2022-10-16T15:42:44;3.13;;;0.98;;
40827;SDS011;26549;50.918;5.338;2022-10-16T15:45:10;3.15;;;1.17;;
40827;SDS011;26549;50.918;5.338;2022-10-16T15:47:40;1.92;;;0.73;;
40827;SDS011;26549;50.918;5.338;2022-10-16T15:50:06;2.05;;;1.45;;
40827;SDS011;26549;50.918;5.338;2022-10-16T15:52:34;1.63;;;0.95;;
40827;SDS011;26549;50.918;5.338;2022-10-16T15:55:02;2.50;;;0.95;;
40827;SDS011;26549;50.918;5.338;2022-10-16T15:57:29;1.17;;;0.50;;
40827;SDS011;26549;50.918;5.338;2022-10-16T15:59:54;1.10;;;0.40;;
40827;SDS011;26549;50.918;5.338;2022-10-16T16:02:21;3.25;;;0.60;;
40827;SDS011;26549;50.918;5.338;2022-10-16T16:04:47;3.08;;;0.80;;
40827;SDS011;26549;50.918;5.338;2022-10-16T16:07:12;1.90;;;0.60;;
40827;SDS011;26549;50.918;5.338;2022-10-16T16:09:38;2.08;;;0.50;;
40827;SDS011;26549;50.918;5.338;2022-10-16T16:12:04;1.15;;;0.65;;
40827;SDS011;26549;50.918;5.338;2022-10-16T16:14:30;1.00;;;0.52;;
40827;SDS011;26549;50.918;5.338;2022-10-16T16:16:56;2.90;;;1.10;;
40827;SDS011;26549;50.918;5.338;2022-10-16T16:19:23;2.25;;;0.93;;
40827;SDS011;26549;50.918;5.338;2022-10-16T16:21:49;1.05;;;0.90;;
40827;SDS011;26549;50.918;5.338;2022-10-16T16:24:15;2.17;;;0.90;;
40827;SDS011;26549;50.918;5.338;2022-10-16T16:26:41;2.55;;;1.27;;
40827;SDS011;26549;50.918;5.338;2022-10-16T16:29:10;2.75;;;1.90;;
40827;SDS011;26549;50.918;5.338;2022-10-16T16:31:38;4.38;;;1.77;;
40827;SDS011;26549;50.918;5.338;2022-10-16T16:34:05;4.65;;;1.77;;
40827;SDS011;26549;50.918;5.338;2022-10-16T16:36:34;4.80;;;1.52;;
40827;SDS011;26549;50.918;5.338;2022-10-16T16:39:00;10.30;;;2.72;;
40827;SDS011;26549;50.918;5.338;2022-10-16T16:41:28;3.05;;;1.90;;
40827;SDS011;26549;50.918;5.338;2022-10-16T16:44:00;4.57;;;1.75;;
40827;SDS011;26549;50.918;5.338;2022-10-16T16:46:33;2.20;;;1.55;;
40827;SDS011;26549;50.918;5.338;2022-10-16T16:49:00;2.88;;;1.77;;
40827;SDS011;26549;50.918;5.338;2022-10-16T16:51:27;3.53;;;1.52;;
40827;SDS011;26549;50.918;5.338;2022-10-16T16:53:54;3.80;;;1.10;;
40827;SDS011;26549;50.918;5.338;2022-10-16T16:56:21;2.33;;;1.00;;
40827;SDS011;26549;50.918;5.338;2022-10-16T16:58:49;5.57;;;1.35;;
40827;SDS011;26549;50.918;5.338;2022-10-16T17:01:16;3.22;;;1.02;;
40827;SDS011;26549;50.918;5.338;2022-10-16T17:03:46;2.10;;;1.00;;
40827;SDS011;26549;50.918;5.338;2022-10-16T17:06:19;4.28;;;0.70;;
40827;SDS011;26549;50.918;5.338;2022-10-16T17:08:48;9.55;;;2.28;;
40827;SDS011;26549;50.918;5.338;2022-10-16T17:11:18;2.03;;;1.02;;
40827;SDS011;26549;50.918;5.338;2022-10-16T17:13:46;1.30;;;1.15;;
40827;SDS011;26549;50.918;5.338;2022-10-16T17:16:12;2.83;;;1.27;;
40827;SDS011;26549;50.918;5.338;2022-10-16T17:18:38;3.95;;;1.60;;
40827;SDS011;26549;50.918;5.338;2022-10-16T17:21:05;4.40;;;2.30;;